Terminal Aerodrome Forecast
Issued by NWS

Home | Current Version | Previous Version | Text Only | Print | Product List | Glossary On
Versions: 1 2 3 4 5 6 7 8 9 10 11 12 13
000
FTUS45 KABQ 292336
TAFROW
TAF
KROW 292336Z 3000/3024 08007KT P6SM VCSH BKN100
     FM301200 04007KT P6SM SCT100
     FM301800 12010KT P6SM SCT080=

USA.gov is the U.S. government's official web portal to all federal, state and local government web resources and services.